sensor_id;sensor_type;location;lat;lon;timestamp;pressure;altitude;pressure_sealevel;temperature;humidity
13968;BME280;39536;52.198;9.920;2023-07-20T00:00:55;100374.00;;;16.93;100.00
13968;BME280;39536;52.198;9.920;2023-07-20T00:03:22;100383.56;;;16.94;100.00
13968;BME280;39536;52.198;9.920;2023-07-20T00:05:51;100375.69;;;16.79;100.00
13968;BME280;39536;52.198;9.920;2023-07-20T00:08:18;100388.84;;;16.94;100.00
13968;BME280;39536;52.198;9.920;2023-07-20T00:10:45;100382.66;;;16.95;100.00
13968;BME280;39536;52.198;9.920;2023-07-20T00:13:12;100381.78;;;17.08;100.00
13968;BME280;39536;52.198;9.920;2023-07-20T00:15:39;100383.00;;;17.03;100.00
13968;BME280;39536;52.198;9.920;2023-07-20T00:18:05;100375.88;;;17.05;100.00
13968;BME280;39536;52.198;9.920;2023-07-20T00:20:32;100379.91;;;17.11;100.00
13968;BME280;39536;52.198;9.920;2023-07-20T00:23:00;100374.28;;;17.02;100.00
13968;BME280;39536;52.198;9.920;2023-07-20T00:25:27;100372.22;;;16.93;100.00
13968;BME280;39536;52.198;9.920;2023-07-20T00:27:53;100376.06;;;16.88;100.00
13968;BME280;39536;52.198;9.920;2023-07-20T00:30:20;100362.53;;;16.94;100.00
13968;BME280;39536;52.198;9.920;2023-07-20T00:32:47;100359.06;;;17.07;100.00
13968;BME280;39536;52.198;9.920;2023-07-20T00:35:13;100367.41;;;17.14;100.00
13968;BME280;39536;52.198;9.920;2023-07-20T00:37:40;100357.44;;;17.05;100.00
13968;BME280;39536;52.198;9.920;2023-07-20T00:40:09;100365.03;;;17.09;100.00
13968;BME280;39536;52.198;9.920;2023-07-20T00:42:35;100362.34;;;16.97;100.00
13968;BME280;39536;52.198;9.920;2023-07-20T00:45:03;100365.91;;;16.81;100.00
13968;BME280;39536;52.198;9.920;2023-07-20T00:47:30;100359.91;;;16.79;100.00
13968;BME280;39536;52.198;9.920;2023-07-20T00:49:57;100361.38;;;16.69;100.00
13968;BME280;39536;52.198;9.920;2023-07-20T00:52:25;100362.25;;;16.84;100.00
13968;BME280;39536;52.198;9.920;2023-07-20T00:54:52;100363.25;;;16.67;100.00
13968;BME280;39536;52.198;9.920;2023-07-20T00:57:24;100364.09;;;16.68;100.00
13968;BME280;39536;52.198;9.920;2023-07-20T00:59:51;100366.19;;;16.77;100.00
13968;BME280;39536;52.198;9.920;2023-07-20T01:02:18;100360.09;;;16.76;100.00
13968;BME280;39536;52.198;9.920;2023-07-20T01:04:45;100363.66;;;16.75;100.00
13968;BME280;39536;52.198;9.920;2023-07-20T01:07:14;100361.88;;;16.76;100.00
13968;BME280;39536;52.198;9.920;2023-07-20T01:09:47;100363.47;;;16.78;100.00
13968;BME280;39536;52.198;9.920;2023-07-20T01:12:22;100375.50;;;16.82;100.00
13968;BME280;39536;52.198;9.920;2023-07-20T01:14:51;100375.88;;;16.91;100.00
13968;BME280;39536;52.198;9.920;2023-07-20T01:17:18;100368.28;;;16.86;100.00
13968;BME280;39536;52.198;9.920;2023-07-20T01:19:44;100373.16;;;16.78;100.00
13968;BME280;39536;52.198;9.920;2023-07-20T01:22:31;100377.69;;;16.60;100.00
13968;BME280;39536;52.198;9.920;2023-07-20T01:25:22;100378.25;;;16.51;100.00
13968;BME280;39536;52.198;9.920;2023-07-20T01:28:24;100376.50;;;16.66;100.00
13968;BME280;39536;52.198;9.920;2023-07-20T01:31:21;100372.06;;;16.52;100.00
13968;BME280;39536;52.198;9.920;2023-07-20T01:33:49;100379.59;;;16.58;100.00
13968;BME280;39536;52.198;9.920;2023-07-20T01:36:18;100373.47;;;16.43;100.00
13968;BME280;39536;52.198;9.920;2023-07-20T01:38:46;100381.59;;;16.38;100.00
13968;BME280;39536;52.198;9.920;2023-07-20T01:41:13;100376.31;;;16.54;100.00
13968;BME280;39536;52.198;9.920;2023-07-20T01:43:42;100383.06;;;16.58;100.00
13968;BME280;39536;52.198;9.920;2023-07-20T01:46:08;100381.00;;;16.63;100.00
13968;BME280;39536;52.198;9.920;2023-07-20T01:48:36;100376.50;;;16.66;100.00
13968;BME280;39536;52.198;9.920;2023-07-20T01:51:03;100377.91;;;16.71;100.00
13968;BME280;39536;52.198;9.920;2023-07-20T01:53:30;100372.97;;;16.81;100.00
13968;BME280;39536;52.198;9.920;2023-07-20T01:55:57;100373.81;;;16.81;100.00
13968;BME280;39536;52.198;9.920;2023-07-20T01:58:23;100372.38;;;16.76;100.00
13968;BME280;39536;52.198;9.920;2023-07-20T02:00:50;100371.03;;;16.69;100.00
13968;BME280;39536;52.198;9.920;2023-07-20T02:03:17;100374.88;;;16.63;100.00
13968;BME280;39536;52.198;9.920;2023-07-20T02:05:45;100369.72;;;16.61;100.00
13968;BME280;39536;52.198;9.920;2023-07-20T02:08:11;100369.25;;;16.55;100.00
13968;BME280;39536;52.198;9.920;2023-07-20T02:10:38;100370.34;;;16.51;100.00
13968;BME280;39536;52.198;9.920;2023-07-20T02:13:05;100366.53;;;16.42;100.00
13968;BME280;39536;52.198;9.920;2023-07-20T02:15:32;100364.63;;;16.44;100.00
13968;BME280;39536;52.198;9.920;2023-07-20T02:17:58;100368.09;;;16.45;100.00
13968;BME280;39536;52.198;9.920;2023-07-20T02:20:25;100377.03;;;16.42;100.00
13968;BME280;39536;52.198;9.920;2023-07-20T02:22:54;100368.69;;;16.50;100.00
13968;BME280;39536;52.198;9.920;2023-07-20T02:25:21;100376.28;;;16.40;100.00
13968;BME280;39536;52.198;9.920;2023-07-20T02:27:48;100377.41;;;16.36;100.00
13968;BME280;39536;52.198;9.920;2023-07-20T02:30:14;100378.91;;;16.40;100.00
13968;BME280;39536;52.198;9.920;2023-07-20T02:32:41;100373.94;;;16.50;100.00
13968;BME280;39536;52.198;9.920;2023-07-20T02:35:10;100364.38;;;16.49;100.00
13968;BME280;39536;52.198;9.920;2023-07-20T02:37:37;100378.97;;;16.38;100.00
13968;BME280;39536;52.198;9.920;2023-07-20T02:40:06;100381.06;;;16.48;100.00
13968;BME280;39536;52.198;9.920;2023-07-20T02:42:34;100378.00;;;16.55;100.00
13968;BME280;39536;52.198;9.920;2023-07-20T02:45:01;100373.50;;;16.57;100.00
13968;BME280;39536;52.198;9.920;2023-07-20T02:47:28;100380.69;;;16.54;100.00
13968;BME280;39536;52.198;9.920;2023-07-20T02:49:55;100376.75;;;16.47;100.00
13968;BME280;39536;52.198;9.920;2023-07-20T02:52:22;100374.59;;;16.39;100.00
13968;BME280;39536;52.198;9.920;2023-07-20T02:54:49;100386.88;;;16.38;100.00
13968;BME280;39536;52.198;9.920;2023-07-20T02:57:17;100374.41;;;16.56;100.00
13968;BME280;39536;52.198;9.920;2023-07-20T02:59:44;100380.50;;;16.57;100.00
13968;BME280;39536;52.198;9.920;2023-07-20T03:02:10;100374.41;;;16.56;100.00
13968;BME280;39536;52.198;9.920;2023-07-20T03:04:37;100379.59;;;16.72;100.00
13968;BME280;39536;52.198;9.920;2023-07-20T03:07:04;100377.16;;;16.69;100.00
13968;BME280;39536;52.198;9.920;2023-07-20T03:09:31;100381.50;;;16.70;100.00
13968;BME280;39536;52.198;9.920;2023-07-20T03:11:57;100382.72;;;16.79;100.00
13968;BME280;39536;52.198;9.920;2023-07-20T03:14:25;100386.22;;;16.94;100.00
13968;BME280;39536;52.198;9.920;2023-07-20T03:16:52;100391.84;;;17.02;100.00
13968;BME280;39536;52.198;9.920;2023-07-20T03:19:19;100386.28;;;17.06;100.00
13968;BME280;39536;52.198;9.920;2023-07-20T03:21:45;100387.06;;;17.08;100.00
13968;BME280;39536;52.198;9.920;2023-07-20T03:24:12;100387.03;;;17.23;100.00
13968;BME280;39536;52.198;9.920;2023-07-20T03:26:39;100384.69;;;17.18;100.00
13968;BME280;39536;52.198;9.920;2023-07-20T03:29:05;100385.25;;;17.23;100.00
13968;BME280;39536;52.198;9.920;2023-07-20T03:31:33;100376.31;;;17.26;100.00
13968;BME280;39536;52.198;9.920;2023-07-20T03:34:00;100373.94;;;17.36;100.00
13968;BME280;39536;52.198;9.920;2023-07-20T03:36:26;100366.97;;;17.35;100.00
13968;BME280;39536;52.198;9.920;2023-07-20T03:38:53;100373.75;;;17.39;100.00
13968;BME280;39536;52.198;9.920;2023-07-20T03:41:20;100373.84;;;17.37;100.00
13968;BME280;39536;52.198;9.920;2023-07-20T03:43:47;100369.53;;;17.36;100.00
13968;BME280;39536;52.198;9.920;2023-07-20T03:46:14;100379.81;;;17.26;100.00
13968;BME280;39536;52.198;9.920;2023-07-20T03:48:42;100369.34;;;17.39;100.00
13968;BME280;39536;52.198;9.920;2023-07-20T03:51:08;100365.47;;;17.45;100.00
13968;BME280;39536;52.198;9.920;2023-07-20T03:53:35;100371.38;;;17.48;100.00
13968;BME280;39536;52.198;9.920;2023-07-20T03:56:02;100373.06;;;17.49;100.00
13968;BME280;39536;52.198;9.920;2023-07-20T03:58:28;100367.31;;;17.57;100.00
13968;BME280;39536;52.198;9.920;2023-07-20T04:00:57;100368.78;;;17.61;100.00
13968;BME280;39536;52.198;9.920;2023-07-20T04:03:24;100369.94;;;17.57;100.00
13968;BME280;39536;52.198;9.920;2023-07-20T04:05:54;100378.53;;;17.46;100.00
13968;BME280;39536;52.198;9.920;2023-07-20T04:08:23;100375.44;;;17.40;100.00
13968;BME280;39536;52.198;9.920;2023-07-20T04:10:50;100374.47;;;17.41;100.00
13968;BME280;39536;52.198;9.920;2023-07-20T04:13:17;100378.44;;;17.48;100.00
13968;BME280;39536;52.198;9.920;2023-07-20T04:15:43;100371.25;;;17.50;100.00
13968;BME280;39536;52.198;9.920;2023-07-20T04:18:10;100374.09;;;17.47;100.00
13968;BME280;39536;52.198;9.920;2023-07-20T04:20:37;100372.03;;;17.38;100.00
13968;BME280;39536;52.198;9.920;2023-07-20T04:23:05;100375.53;;;17.38;100.00
13968;BME280;39536;52.198;9.920;2023-07-20T04:25:32;100379.56;;;17.44;100.00
13968;BME280;39536;52.198;9.920;2023-07-20T04:28:04;100380.59;;;17.41;100.00
13968;BME280;39536;52.198;9.920;2023-07-20T04:30:34;100392.47;;;17.34;100.00
13968;BME280;39536;52.198;9.920;2023-07-20T04:33:00;100389.94;;;17.33;100.00
13968;BME280;39536;52.198;9.920;2023-07-20T04:35:47;100390.25;;;16.99;100.00
13968;BME280;39536;52.198;9.920;2023-07-20T04:38:16;100393.00;;;16.98;100.00
13968;BME280;39536;52.198;9.920;2023-07-20T04:40:44;100404.63;;;17.08;100.00
13968;BME280;39536;52.198;9.920;2023-07-20T04:43:11;100401.63;;;17.14;100.00
13968;BME280;39536;52.198;9.920;2023-07-20T04:45:38;100404.34;;;17.13;100.00
13968;BME280;39536;52.198;9.920;2023-07-20T04:48:08;100408.03;;;16.96;100.00
13968;BME280;39536;52.198;9.920;2023-07-20T04:50:35;100420.78;;;16.88;100.00
13968;BME280;39536;52.198;9.920;2023-07-20T04:53:01;100414.97;;;16.82;100.00
13968;BME280;39536;52.198;9.920;2023-07-20T04:55:29;100415.94;;;16.66;100.00
13968;BME280;39536;52.198;9.920;2023-07-20T04:57:57;100415.22;;;16.63;100.00
13968;BME280;39536;52.198;9.920;2023-07-20T05:00:25;100413.75;;;16.44;100.00
13968;BME280;39536;52.198;9.920;2023-07-20T05:02:52;100427.34;;;16.36;100.00
13968;BME280;39536;52.198;9.920;2023-07-20T05:05:18;100429.16;;;16.20;100.00
13968;BME280;39536;52.198;9.920;2023-07-20T05:07:45;100430.91;;;16.05;100.00
13968;BME280;39536;52.198;9.920;2023-07-20T05:10:12;100430.75;;;16.22;100.00
13968;BME280;39536;52.198;9.920;2023-07-20T05:12:40;100434.03;;;16.11;100.00
13968;BME280;39536;52.198;9.920;2023-07-20T05:15:07;100432.75;;;16.03;100.00
13968;BME280;39536;52.198;9.920;2023-07-20T05:17:34;100430.91;;;16.05;100.00
13968;BME280;39536;52.198;9.920;2023-07-20T05:20:00;100430.22;;;16.01;100.00
13968;BME280;39536;52.198;9.920;2023-07-20T05:22:29;100430.47;;;15.97;100.00
13968;BME280;39536;52.198;9.920;2023-07-20T05:24:55;100432.09;;;15.99;100.00
13968;BME280;39536;52.198;9.920;2023-07-20T05:27:22;100438.03;;;15.87;100.00
13968;BME280;39536;52.198;9.920;2023-07-20T05:29:50;100440.31;;;15.93;100.00
13968;BME280;39536;52.198;9.920;2023-07-20T05:32:17;100438.72;;;15.75;100.00
13968;BME280;39536;52.198;9.920;2023-07-20T05:34:43;100446.22;;;15.65;100.00
13968;BME280;39536;52.198;9.920;2023-07-20T05:37:10;100449.69;;;15.34;100.00
13968;BME280;39536;52.198;9.920;2023-07-20T05:39:36;100451.69;;;15.29;100.00
13968;BME280;39536;52.198;9.920;2023-07-20T05:42:03;100459.25;;;15.51;100.00
13968;BME280;39536;52.198;9.920;2023-07-20T05:44:30;100454.34;;;15.44;100.00
13968;BME280;39536;52.198;9.920;2023-07-20T05:46:58;100449.94;;;15.45;100.00
13968;BME280;39536;52.198;9.920;2023-07-20T05:49:25;100454.63;;;15.56;100.00
13968;BME280;39536;52.198;9.920;2023-07-20T05:51:52;100447.19;;;15.64;100.00
13968;BME280;39536;52.198;9.920;2023-07-20T05:54:21;100449.88;;;15.46;100.00
13968;BME280;39536;52.198;9.920;2023-07-20T05:56:48;100450.63;;;15.64;100.00
13968;BME280;39536;52.198;9.920;2023-07-20T05:59:15;100452.97;;;15.70;100.00
13968;BME280;39536;52.198;9.920;2023-07-20T06:01:43;100460.91;;;15.69;100.00
13968;BME280;39536;52.198;9.920;2023-07-20T06:04:11;100462.63;;;15.70;100.00
13968;BME280;39536;52.198;9.920;2023-07-20T06:06:37;100470.03;;;15.62;100.00
13968;BME280;39536;52.198;9.920;2023-07-20T06:09:04;100461.72;;;15.54;100.00
13968;BME280;39536;52.198;9.920;2023-07-20T06:11:34;100464.19;;;15.57;100.00
13968;BME280;39536;52.198;9.920;2023-07-20T06:14:01;100466.81;;;15.57;100.00
13968;BME280;39536;52.198;9.920;2023-07-20T06:16:28;100468.41;;;15.59;100.00
13968;BME280;39536;52.198;9.920;2023-07-20T06:18:55;100472.38;;;15.66;100.00
13968;BME280;39536;52.198;9.920;2023-07-20T06:21:23;100464.63;;;15.65;100.00
13968;BME280;39536;52.198;9.920;2023-07-20T06:23:50;100467.69;;;15.73;100.00
13968;BME280;39536;52.198;9.920;2023-07-20T06:26:16;100471.56;;;15.66;100.00
13968;BME280;39536;52.198;9.920;2023-07-20T06:28:45;100478.44;;;15.68;100.00
13968;BME280;39536;52.198;9.920;2023-07-20T06:31:11;100479.59;;;15.63;100.00
13968;BME280;39536;52.198;9.920;2023-07-20T06:33:38;100479.44;;;15.66;100.00
13968;BME280;39536;52.198;9.920;2023-07-20T06:36:05;100475.31;;;15.78;100.00
13968;BME280;39536;52.198;9.920;2023-07-20T06:38:33;100481.25;;;15.81;100.00
13968;BME280;39536;52.198;9.920;2023-07-20T06:41:00;100485.22;;;15.88;100.00
13968;BME280;39536;52.198;9.920;2023-07-20T06:43:26;100481.34;;;15.96;100.00
13968;BME280;39536;52.198;9.920;2023-07-20T06:45:53;100483.28;;;15.92;100.00
13968;BME280;39536;52.198;9.920;2023-07-20T06:48:20;100481.56;;;15.91;100.00
13968;BME280;39536;52.198;9.920;2023-07-20T06:50:47;100478.44;;;16.00;100.00
13968;BME280;39536;52.198;9.920;2023-07-20T06:53:13;100480.31;;;16.14;100.00
13968;BME280;39536;52.198;9.920;2023-07-20T06:55:43;100473.69;;;15.91;100.00
13968;BME280;39536;52.198;9.920;2023-07-20T06:58:09;100472.78;;;15.92;100.00
13968;BME280;39536;52.198;9.920;2023-07-20T07:00:36;100477.31;;;16.04;100.00
13968;BME280;39536;52.198;9.920;2023-07-20T07:03:02;100480.81;;;16.05;100.00
13968;BME280;39536;52.198;9.920;2023-07-20T07:05:29;100482.78;;;16.01;100.00
13968;BME280;39536;52.198;9.920;2023-07-20T07:07:56;100495.13;;;16.15;100.00
13968;BME280;39536;52.198;9.920;2023-07-20T07:10:22;100495.91;;;16.01;100.00
13968;BME280;39536;52.198;9.920;2023-07-20T07:12:50;100494.31;;;15.99;100.00
13968;BME280;39536;52.198;9.920;2023-07-20T07:15:17;100486.94;;;16.05;100.00
13968;BME280;39536;52.198;9.920;2023-07-20T07:17:44;100504.81;;;15.99;100.00
13968;BME280;39536;52.198;9.920;2023-07-20T07:20:11;100500.22;;;16.02;100.00
13968;BME280;39536;52.198;9.920;2023-07-20T07:22:38;100503.59;;;16.04;100.00
13968;BME280;39536;52.198;9.920;2023-07-20T07:25:05;100502.84;;;16.18;100.00
13968;BME280;39536;52.198;9.920;2023-07-20T07:27:33;100496.81;;;16.16;100.00
13968;BME280;39536;52.198;9.920;2023-07-20T07:30:01;100499.53;;;16.14;100.00
13968;BME280;39536;52.198;9.920;2023-07-20T07:32:27;100494.69;;;16.23;100.00
13968;BME280;39536;52.198;9.920;2023-07-20T07:34:54;100503.16;;;16.28;100.00
13968;BME280;39536;52.198;9.920;2023-07-20T07:37:21;100485.22;;;16.50;100.00
13968;BME280;39536;52.198;9.920;2023-07-20T07:39:48;100493.72;;;16.70;100.00
13968;BME280;39536;52.198;9.920;2023-07-20T07:42:15;100499.56;;;16.75;100.00
13968;BME280;39536;52.198;9.920;2023-07-20T07:44:41;100503.19;;;16.88;100.00
13968;BME280;39536;52.198;9.920;2023-07-20T07:47:09;100491.94;;;16.86;100.00
13968;BME280;39536;52.198;9.920;2023-07-20T07:49:36;100502.38;;;17.02;100.00
13968;BME280;39536;52.198;9.920;2023-07-20T07:52:03;100500.97;;;16.96;100.00
13968;BME280;39536;52.198;9.920;2023-07-20T07:54:30;100493.31;;;16.77;100.00
13968;BME280;39536;52.198;9.920;2023-07-20T07:56:56;100504.34;;;16.68;100.00
13968;BME280;39536;52.198;9.920;2023-07-20T07:59:23;100506.34;;;16.95;100.00
13968;BME280;39536;52.198;9.920;2023-07-20T08:01:49;100505.31;;;17.12;100.00
13968;BME280;39536;52.198;9.920;2023-07-20T08:04:17;100518.22;;;17.45;100.00
13968;BME280;39536;52.198;9.920;2023-07-20T08:06:44;100511.22;;;17.44;100.00
13968;BME280;39536;52.198;9.920;2023-07-20T08:09:11;100500.78;;;17.71;100.00
13968;BME280;39536;52.198;9.920;2023-07-20T08:11:39;100501.78;;;17.97;100.00
13968;BME280;39536;52.198;9.920;2023-07-20T08:14:05;100503.63;;;18.09;100.00
13968;BME280;39536;52.198;9.920;2023-07-20T08:16:32;100508.16;;;18.34;100.00
13968;BME280;39536;52.198;9.920;2023-07-20T08:18:59;100501.59;;;18.54;100.00
13968;BME280;39536;52.198;9.920;2023-07-20T08:32:05;100510.63;;;18.90;100.00
13968;BME280;39536;52.198;9.920;2023-07-20T08:34:31;100522.56;;;19.34;100.00
13968;BME280;39536;52.198;9.920;2023-07-20T08:36:58;100520.88;;;19.58;100.00
13968;BME280;39536;52.198;9.920;2023-07-20T08:39:25;100512.44;;;19.02;100.00
13968;BME280;39536;52.198;9.920;2023-07-20T08:41:51;100515.19;;;18.61;100.00
13968;BME280;39536;52.198;9.920;2023-07-20T08:44:18;100517.13;;;18.72;100.00
13968;BME280;39536;52.198;9.920;2023-07-20T08:46:46;100518.75;;;19.00;100.00
13968;BME280;39536;52.198;9.920;2023-07-20T08:49:16;100524.28;;;19.35;100.00
13968;BME280;39536;52.198;9.920;2023-07-20T08:51:45;100526.19;;;19.33;100.00
13968;BME280;39536;52.198;9.920;2023-07-20T08:54:13;100527.13;;;19.06;100.00
13968;BME280;39536;52.198;9.920;2023-07-20T08:56:41;100518.84;;;18.73;100.00
13968;BME280;39536;52.198;9.920;2023-07-20T08:59:09;100524.88;;;18.48;100.00
13968;BME280;39536;52.198;9.920;2023-07-20T09:01:36;100513.53;;;18.60;100.00
13968;BME280;39536;52.198;9.920;2023-07-20T09:04:05;100521.38;;;18.74;100.00
13968;BME280;39536;52.198;9.920;2023-07-20T09:06:35;100518.13;;;18.83;100.00
13968;BME280;39536;52.198;9.920;2023-07-20T09:09:01;100517.50;;;19.05;100.00
13968;BME280;39536;52.198;9.920;2023-07-20T09:11:28;100519.63;;;19.38;100.00
13968;BME280;39536;52.198;9.920;2023-07-20T09:14:03;100518.56;;;19.54;100.00
13968;BME280;39536;52.198;9.920;2023-07-20T09:16:29;100525.66;;;19.53;100.00
13968;BME280;39536;52.198;9.920;2023-07-20T09:18:57;100522.91;;;19.04;100.00
13968;BME280;39536;52.198;9.920;2023-07-20T09:21:29;100519.59;;;19.00;100.00
13968;BME280;39536;52.198;9.920;2023-07-20T09:23:57;100511.59;;;19.14;100.00
13968;BME280;39536;52.198;9.920;2023-07-20T09:26:27;100517.94;;;19.25;100.00
13968;BME280;39536;52.198;9.920;2023-07-20T09:28:54;100510.06;;;19.61;100.00
13968;BME280;39536;52.198;9.920;2023-07-20T09:31:22;100519.34;;;19.93;100.00
13968;BME280;39536;52.198;9.920;2023-07-20T09:33:52;100512.94;;;20.32;100.00
13968;BME280;39536;52.198;9.920;2023-07-20T09:36:19;100517.09;;;20.47;100.00
13968;BME280;39536;52.198;9.920;2023-07-20T09:38:46;100520.72;;;20.22;100.00
13968;BME280;39536;52.198;9.920;2023-07-20T09:41:14;100520.41;;;19.90;100.00
13968;BME280;39536;52.198;9.920;2023-07-20T09:43:42;100524.97;;;19.88;100.00
13968;BME280;39536;52.198;9.920;2023-07-20T09:46:09;100526.13;;;19.84;100.00
13968;BME280;39536;52.198;9.920;2023-07-20T09:48:35;100524.56;;;20.05;100.00
13968;BME280;39536;52.198;9.920;2023-07-20T09:51:03;100514.59;;;20.22;100.00
13968;BME280;39536;52.198;9.920;2023-07-20T09:53:32;100530.84;;;20.28;100.00
13968;BME280;39536;52.198;9.920;2023-07-20T09:55:59;100519.09;;;20.33;100.00
13968;BME280;39536;52.198;9.920;2023-07-20T09:58:32;100516.03;;;20.50;100.00
13968;BME280;39536;52.198;9.920;2023-07-20T10:01:03;100518.09;;;20.82;100.00
13968;BME280;39536;52.198;9.920;2023-07-20T10:03:35;100514.34;;;20.73;100.00
13968;BME280;39536;52.198;9.920;2023-07-20T10:06:06;100517.72;;;20.75;98.65
13968;BME280;39536;52.198;9.920;2023-07-20T10:08:38;100518.97;;;21.05;98.69
13968;BME280;39536;52.198;9.920;2023-07-20T10:11:07;100504.03;;;20.81;98.09
13968;BME280;39536;52.198;9.920;2023-07-20T10:13:38;100522.28;;;20.49;100.00
13968;BME280;39536;52.198;9.920;2023-07-20T10:16:10;100523.97;;;20.02;100.00
13968;BME280;39536;52.198;9.920;2023-07-20T10:18:41;100528.75;;;20.21;100.00
13968;BME280;39536;52.198;9.920;2023-07-20T10:21:15;100518.13;;;20.34;100.00
13968;BME280;39536;52.198;9.920;2023-07-20T10:23:44;100529.03;;;20.05;100.00
13968;BME280;39536;52.198;9.920;2023-07-20T10:26:11;100528.84;;;19.95;99.27
13968;BME280;39536;52.198;9.920;2023-07-20T10:28:42;100522.72;;;19.95;88.52
13968;BME280;39536;52.198;9.920;2023-07-20T10:31:10;100499.59;;;20.34;81.92
13968;BME280;39536;52.198;9.920;2023-07-20T10:33:38;100509.16;;;20.47;84.57
13968;BME280;39536;52.198;9.920;2023-07-20T10:36:05;100509.81;;;21.09;87.32
13968;BME280;39536;52.198;9.920;2023-07-20T10:38:39;100509.88;;;21.31;85.03
13968;BME280;39536;52.198;9.920;2023-07-20T10:41:16;100503.22;;;21.03;86.50
13968;BME280;39536;52.198;9.920;2023-07-20T10:43:45;100495.16;;;20.93;86.02
13968;BME280;39536;52.198;9.920;2023-07-20T10:46:12;100502.53;;;20.77;86.91
13968;BME280;39536;52.198;9.920;2023-07-20T10:49:00;100511.22;;;20.79;90.29
13968;BME280;39536;52.198;9.920;2023-07-20T10:51:27;100492.94;;;20.76;86.19
13968;BME280;39536;52.198;9.920;2023-07-20T10:53:55;100495.56;;;20.76;81.01
13968;BME280;39536;52.198;9.920;2023-07-20T10:56:26;100492.50;;;20.93;83.07
13968;BME280;39536;52.198;9.920;2023-07-20T10:58:57;100502.34;;;20.91;82.71
13968;BME280;39536;52.198;9.920;2023-07-20T11:01:28;100499.84;;;20.55;82.47
13968;BME280;39536;52.198;9.920;2023-07-20T11:03:57;100508.91;;;20.63;84.57
13968;BME280;39536;52.198;9.920;2023-07-20T11:06:32;100512.91;;;20.80;84.42
13968;BME280;39536;52.198;9.920;2023-07-20T11:09:05;100493.66;;;20.78;85.55
13968;BME280;39536;52.198;9.920;2023-07-20T11:11:34;100504.53;;;20.97;83.37
13968;BME280;39536;52.198;9.920;2023-07-20T11:14:04;100508.63;;;20.90;82.03
13968;BME280;39536;52.198;9.920;2023-07-20T11:16:35;100496.22;;;20.91;80.64
13968;BME280;39536;52.198;9.920;2023-07-20T11:19:03;100499.72;;;21.03;81.05
13968;BME280;39536;52.198;9.920;2023-07-20T11:21:35;100502.31;;;21.38;81.40
13968;BME280;39536;52.198;9.920;2023-07-20T11:24:03;100503.13;;;21.61;80.68
13968;BME280;39536;52.198;9.920;2023-07-20T11:26:30;100502.53;;;21.68;78.04
13968;BME280;39536;52.198;9.920;2023-07-20T11:29:07;100509.13;;;21.07;81.27
13968;BME280;39536;52.198;9.920;2023-07-20T11:31:35;100513.88;;;20.79;83.78
13968;BME280;39536;52.198;9.920;2023-07-20T11:34:02;100508.25;;;20.95;84.01
13968;BME280;39536;52.198;9.920;2023-07-20T11:36:29;100518.72;;;20.85;82.85
13968;BME280;39536;52.198;9.920;2023-07-20T11:38:56;100516.94;;;20.62;84.60
13968;BME280;39536;52.198;9.920;2023-07-20T11:41:24;100509.59;;;20.54;88.16
13968;BME280;39536;52.198;9.920;2023-07-20T11:43:51;100510.00;;;20.72;87.69
13968;BME280;39536;52.198;9.920;2023-07-20T11:46:19;100492.88;;;20.65;88.12
13968;BME280;39536;52.198;9.920;2023-07-20T11:48:46;100508.28;;;20.60;88.77
13968;BME280;39536;52.198;9.920;2023-07-20T11:51:16;100505.31;;;20.75;90.28
13968;BME280;39536;52.198;9.920;2023-07-20T11:53:44;100491.75;;;20.91;90.10
13968;BME280;39536;52.198;9.920;2023-07-20T11:56:11;100511.19;;;21.26;87.87
13968;BME280;39536;52.198;9.920;2023-07-20T11:58:42;100504.34;;;21.45;88.18
13968;BME280;39536;52.198;9.920;2023-07-20T12:01:12;100492.44;;;21.51;84.70
13968;BME280;39536;52.198;9.920;2023-07-20T12:03:41;100492.19;;;21.54;85.63
13968;BME280;39536;52.198;9.920;2023-07-20T12:06:09;100500.59;;;21.26;85.98
13968;BME280;39536;52.198;9.920;2023-07-20T12:08:38;100499.00;;;21.01;88.86
13968;BME280;39536;52.198;9.920;2023-07-20T12:11:05;100487.81;;;20.97;86.42
13968;BME280;39536;52.198;9.920;2023-07-20T12:13:36;100493.47;;;21.15;85.30
13968;BME280;39536;52.198;9.920;2023-07-20T12:16:08;100503.31;;;21.02;88.18
13968;BME280;39536;52.198;9.920;2023-07-20T12:18:36;100504.72;;;20.48;88.11
13968;BME280;39536;52.198;9.920;2023-07-20T12:21:05;100497.63;;;20.72;89.99
13968;BME280;39536;52.198;9.920;2023-07-20T12:23:35;100493.81;;;20.88;88.52
13968;BME280;39536;52.198;9.920;2023-07-20T12:26:03;100497.63;;;20.84;88.76
13968;BME280;39536;52.198;9.920;2023-07-20T12:28:32;100494.03;;;20.96;90.81
13968;BME280;39536;52.198;9.920;2023-07-20T12:30:59;100493.22;;;21.07;89.99
13968;BME280;39536;52.198;9.920;2023-07-20T12:33:26;100491.81;;;21.25;88.79
13968;BME280;39536;52.198;9.920;2023-07-20T12:35:52;100486.41;;;21.60;86.55
13968;BME280;39536;52.198;9.920;2023-07-20T12:38:22;100485.59;;;21.92;85.28
13968;BME280;39536;52.198;9.920;2023-07-20T12:40:49;100480.16;;;22.16;81.70
13968;BME280;39536;52.198;9.920;2023-07-20T12:43:16;100489.75;;;22.28;80.65
13968;BME280;39536;52.198;9.920;2023-07-20T12:45:43;100479.56;;;22.45;76.17
13968;BME280;39536;52.198;9.920;2023-07-20T12:48:09;100480.53;;;22.86;74.38
13968;BME280;39536;52.198;9.920;2023-07-20T12:50:39;100489.03;;;23.00;72.33
13968;BME280;39536;52.198;9.920;2023-07-20T12:53:06;100478.47;;;22.47;71.14
13968;BME280;39536;52.198;9.920;2023-07-20T12:55:34;100481.72;;;22.19;73.95
13968;BME280;39536;52.198;9.920;2023-07-20T12:58:00;100475.75;;;21.83;78.07